METAR Data
IDs: Format: Raw Decoded Include TAF

Data at: 1233 UTC 16 Oct 2018

PAOT 161153Z AUTO 01012KT 10SM BKN100 01/M04 A2946 RMK AO2 SLP976 T00111039 10017 20006 58021 TSNO
PAOT 161053Z AUTO 01011KT 10SM CLR 01/M04 A2948 RMK AO2 SLP984 T00111039 TSNO
PAOT 160953Z AUTO 02010KT 10SM FEW110 02/M04 A2951 RMK AO2 SLP991 T00171039 TSNO
PAOT 160853Z AUTO 01009KT 10SM OVC120 02/M04 A2952 RMK AO2 SLP997 T00171039 400390000 58016 TSNO
PAOT 160753Z 01010KT 10SM BKN120 01/M03 A2954 RMK AO2 SLP004 T00111033
PAOT 160653Z 02012KT 10SM OVC120 01/M03 A2955 RMK AO2 SLP008 T00111033
PAOT 160553Z 02011KT 10SM CLR 02/M03 A2957 RMK AO2 SLP013 T00171033 10039 20017 56022
PAOT 160453Z 02011KT 10SM BKN180 02/M03 A2959 RMK AO2 SLP020 T00221028
PAOT 160353Z 03012KT 10SM BKN180 03/M02 A2961 RMK AO2 SLP026 T00281022
PAOT 160253Z 02011KT 10SM BKN180 03/M02 A2963 RMK AO2 SLP035 T00281017 58027
PAOT 160153Z 03010KT 10SM BKN220 03/M01 A2966 RMK AO2 SLP045 T00331011
PAOT 160053Z 05009KT 10SM BKN220 04/M02 A2969 RMK AO2 SLP054 T00391017
PAOT 152353Z 06011KT 10SM CLR 03/M02 A2971 RMK AO2 SLP062 T00331017 10039 20000 58025
PAOT 152253Z 06010KT 10SM SCT220 04/M01 A2974 RMK AO2 SLP072 T00391011
PAOT 152153Z 05015KT 10SM FEW220 04/M01 A2976 RMK AO2 SLP079 T00391011
PAOT 152053Z 04008KT 10SM FEW140 SCT220 02/M01 A2979 RMK AO2 SLP087 T00221011 58006
PAOT 151953Z 02008KT 10SM FEW120 SCT180 01/M02 A2979 RMK AO2 SLP088 T00111017
PAOT 151853Z 03008KT 10SM SCT120 BKN180 01/M02 A2980 RMK AO2 SLP093 T00061022
PAOT 151753Z 04007KT 10SM SCT120 00/M02 A2981 RMK AO2 SLP093 T00001017 10011 20000 58002
PAOT 151653Z 02005KT 10SM BKN120 00/M02 A2981 RMK AO2 SLP095 T00001022
PAOT 151553Z 02008KT 10SM CLR 01/M02 A2981 RMK AO2 SLP095 T00061017 $
PAOT 151453Z 04008KT 10SM CLR 01/M02 A2981 RMK AO2 SLP095 T00061017 58010 $
PAOT 151353Z AUTO 04007KT 10SM CLR 01/M01 A2983 RMK AO2 SLP100 T00111006 TSNO $
PAOT 151253Z AUTO 06004KT 10SM CLR 01/M01 A2984 RMK AO2 SLP104 T00061006 TSNO $
PAOT 151153Z AUTO 06005KT 10SM CLR 01/M01 A2984 RMK AO2 SLP106 T00061006 10039 20006 56001 TSNO $
PAOT 151053Z AUTO 07005KT 10SM CLR 01/M01 A2984 RMK AO2 SLP106 T00111006 TSNO $
PAOT 150953Z AUTO 06007KT 10SM CLR 02/00 A2984 RMK AO2 SLP104 T00170000 TSNO $
PAOT 150853Z AUTO 06008KT 10SM OVC065 02/01 A2985 RMK AO2 SLP107 T00220011 400610022 53004 TSNO $
PAOT 150753Z 06007KT 10SM OVC065 03/02 A2984 RMK AO2 SLP105 T00330017 $
PAOT 150653Z 05008KT 10SM OVC060 04/02 A2984 RMK AO2 SLP103 T00390017 $
PAOT 150553Z 06006KT 10SM BKN065 04/02 A2983 RMK AO2 SLP103 T00390017 10061 20039 53002 $
PAOT 150453Z 04008KT 10SM BKN065 04/02 A2983 RMK AO2 SLP100 T00390017 $
PAOT 150353Z 05003KT 10SM BKN065 04/02 A2983 RMK AO2 SLP101 T00440017 $
PAOT 150253Z 06007KT 10SM BKN065 05/02 A2983 RMK AO2 SLP101 T00500022 55003 $
PAOT 150153Z 05009KT 10SM BKN070 06/02 A2983 RMK AO2 SLP100 T00610022 $
PAOT 150053Z COR 09006KT 10SM FEW016 BKN070 06/03 A2983 RMK AO2 SLP102 T00610028 $